sensor_id;sensor_type;location;lat;lon;timestamp;temperature;humidity
67141;DHT22;54058;52.010;5.546;2023-12-20T00:01:33;7.50;99.90
67141;DHT22;54058;52.010;5.546;2023-12-20T00:03:58;7.50;99.90
67141;DHT22;54058;52.010;5.546;2023-12-20T00:06:24;7.50;99.90
67141;DHT22;54058;52.010;5.546;2023-12-20T00:08:49;7.50;99.90
67141;DHT22;54058;52.010;5.546;2023-12-20T00:11:15;7.40;99.90
67141;DHT22;54058;52.010;5.546;2023-12-20T00:13:41;7.40;99.90
67141;DHT22;54058;52.010;5.546;2023-12-20T00:16:07;7.40;99.90
67141;DHT22;54058;52.010;5.546;2023-12-20T00:18:32;7.40;99.90
67141;DHT22;54058;52.010;5.546;2023-12-20T00:20:58;7.30;99.90
67141;DHT22;54058;52.010;5.546;2023-12-20T00:23:23;7.30;99.90
67141;DHT22;54058;52.010;5.546;2023-12-20T00:25:49;7.20;99.90
67141;DHT22;54058;52.010;5.546;2023-12-20T00:28:15;7.20;99.90
67141;DHT22;54058;52.010;5.546;2023-12-20T00:30:40;7.20;99.90
67141;DHT22;54058;52.010;5.546;2023-12-20T00:33:06;7.10;99.90
67141;DHT22;54058;52.010;5.546;2023-12-20T00:35:31;7.10;99.90
67141;DHT22;54058;52.010;5.546;2023-12-20T00:38:05;7.10;99.90
67141;DHT22;54058;52.010;5.546;2023-12-20T00:40:32;7.00;99.90
67141;DHT22;54058;52.010;5.546;2023-12-20T00:42:58;7.10;99.90
67141;DHT22;54058;52.010;5.546;2023-12-20T00:45:24;7.00;99.90
67141;DHT22;54058;52.010;5.546;2023-12-20T00:47:51;7.00;99.90
67141;DHT22;54058;52.010;5.546;2023-12-20T00:50:17;7.00;99.90
67141;DHT22;54058;52.010;5.546;2023-12-20T00:52:42;7.00;99.90
67141;DHT22;54058;52.010;5.546;2023-12-20T00:55:14;7.00;99.90
67141;DHT22;54058;52.010;5.546;2023-12-20T00:57:40;7.00;99.90
67141;DHT22;54058;52.010;5.546;2023-12-20T01:00:06;7.00;99.90
67141;DHT22;54058;52.010;5.546;2023-12-20T01:02:32;7.00;99.90
67141;DHT22;54058;52.010;5.546;2023-12-20T01:04:57;6.90;99.90
67141;DHT22;54058;52.010;5.546;2023-12-20T01:07:23;6.90;99.90
67141;DHT22;54058;52.010;5.546;2023-12-20T01:09:51;6.90;99.90
67141;DHT22;54058;52.010;5.546;2023-12-20T01:12:19;6.90;99.90
67141;DHT22;54058;52.010;5.546;2023-12-20T01:14:45;6.90;99.90
67141;DHT22;54058;52.010;5.546;2023-12-20T01:17:12;6.90;99.90
67141;DHT22;54058;52.010;5.546;2023-12-20T01:19:38;6.80;99.90
67141;DHT22;54058;52.010;5.546;2023-12-20T01:22:04;6.80;99.90
67141;DHT22;54058;52.010;5.546;2023-12-20T01:24:29;6.80;99.90
67141;DHT22;54058;52.010;5.546;2023-12-20T01:26:55;6.80;99.90
67141;DHT22;54058;52.010;5.546;2023-12-20T01:29:21;6.80;99.90
67141;DHT22;54058;52.010;5.546;2023-12-20T01:31:46;6.80;99.90
67141;DHT22;54058;52.010;5.546;2023-12-20T01:34:12;6.80;99.90
67141;DHT22;54058;52.010;5.546;2023-12-20T01:36:38;6.80;99.90
67141;DHT22;54058;52.010;5.546;2023-12-20T01:39:05;6.80;99.90
67141;DHT22;54058;52.010;5.546;2023-12-20T01:41:31;6.80;99.90
67141;DHT22;54058;52.010;5.546;2023-12-20T01:43:57;6.80;99.90
67141;DHT22;54058;52.010;5.546;2023-12-20T01:46:22;6.70;99.90
67141;DHT22;54058;52.010;5.546;2023-12-20T01:48:52;6.70;99.90
67141;DHT22;54058;52.010;5.546;2023-12-20T01:51:21;6.70;99.90
67141;DHT22;54058;52.010;5.546;2023-12-20T01:53:48;6.80;99.90
67141;DHT22;54058;52.010;5.546;2023-12-20T01:56:14;6.80;99.90
67141;DHT22;54058;52.010;5.546;2023-12-20T01:58:43;6.80;99.90
67141;DHT22;54058;52.010;5.546;2023-12-20T02:01:11;6.90;99.90
67141;DHT22;54058;52.010;5.546;2023-12-20T02:03:37;6.90;99.90
67141;DHT22;54058;52.010;5.546;2023-12-20T02:06:07;6.90;99.90
67141;DHT22;54058;52.010;5.546;2023-12-20T02:08:32;6.90;99.90
67141;DHT22;54058;52.010;5.546;2023-12-20T02:10:59;7.00;99.90
67141;DHT22;54058;52.010;5.546;2023-12-20T02:13:25;7.00;99.90
67141;DHT22;54058;52.010;5.546;2023-12-20T02:15:52;7.00;99.90
67141;DHT22;54058;52.010;5.546;2023-12-20T02:18:18;7.00;99.90
67141;DHT22;54058;52.010;5.546;2023-12-20T02:20:43;7.00;99.90
67141;DHT22;54058;52.010;5.546;2023-12-20T02:23:09;7.00;99.90
67141;DHT22;54058;52.010;5.546;2023-12-20T02:25:34;7.00;99.90
67141;DHT22;54058;52.010;5.546;2023-12-20T02:28:01;7.00;99.90
67141;DHT22;54058;52.010;5.546;2023-12-20T02:30:27;7.00;99.90
67141;DHT22;54058;52.010;5.546;2023-12-20T02:32:53;7.00;99.90
67141;DHT22;54058;52.010;5.546;2023-12-20T02:35:19;7.10;99.90
67141;DHT22;54058;52.010;5.546;2023-12-20T02:37:45;7.10;99.90
67141;DHT22;54058;52.010;5.546;2023-12-20T02:40:10;7.20;99.90
67141;DHT22;54058;52.010;5.546;2023-12-20T02:42:36;7.20;99.90
67141;DHT22;54058;52.010;5.546;2023-12-20T02:45:02;7.20;99.90
67141;DHT22;54058;52.010;5.546;2023-12-20T02:47:28;7.20;99.90
67141;DHT22;54058;52.010;5.546;2023-12-20T02:49:55;7.30;99.90
67141;DHT22;54058;52.010;5.546;2023-12-20T02:52:22;7.30;99.90
67141;DHT22;54058;52.010;5.546;2023-12-20T02:54:48;7.20;99.90
67141;DHT22;54058;52.010;5.546;2023-12-20T02:57:14;7.10;99.90
67141;DHT22;54058;52.010;5.546;2023-12-20T02:59:39;7.10;99.90
67141;DHT22;54058;52.010;5.546;2023-12-20T03:02:05;7.10;99.90
67141;DHT22;54058;52.010;5.546;2023-12-20T03:04:31;7.10;99.90
67141;DHT22;54058;52.010;5.546;2023-12-20T03:06:56;7.10;99.90
67141;DHT22;54058;52.010;5.546;2023-12-20T03:09:22;7.10;99.90
67141;DHT22;54058;52.010;5.546;2023-12-20T03:11:47;7.10;99.90
67141;DHT22;54058;52.010;5.546;2023-12-20T03:14:13;7.20;99.90
67141;DHT22;54058;52.010;5.546;2023-12-20T03:16:38;7.20;99.90
67141;DHT22;54058;52.010;5.546;2023-12-20T03:19:04;7.20;99.90
67141;DHT22;54058;52.010;5.546;2023-12-20T03:21:30;7.20;99.90
67141;DHT22;54058;52.010;5.546;2023-12-20T03:23:55;7.20;99.90
67141;DHT22;54058;52.010;5.546;2023-12-20T03:26:22;7.20;99.90
67141;DHT22;54058;52.010;5.546;2023-12-20T03:28:48;7.20;99.90
67141;DHT22;54058;52.010;5.546;2023-12-20T03:31:14;7.20;99.90
67141;DHT22;54058;52.010;5.546;2023-12-20T03:33:39;7.30;99.90
67141;DHT22;54058;52.010;5.546;2023-12-20T03:36:05;7.30;99.90
67141;DHT22;54058;52.010;5.546;2023-12-20T03:38:32;7.30;99.90
67141;DHT22;54058;52.010;5.546;2023-12-20T03:40:58;7.30;99.90
67141;DHT22;54058;52.010;5.546;2023-12-20T03:43:23;7.30;99.90
67141;DHT22;54058;52.010;5.546;2023-12-20T03:45:49;7.30;99.90
67141;DHT22;54058;52.010;5.546;2023-12-20T03:48:15;7.30;99.90
67141;DHT22;54058;52.010;5.546;2023-12-20T03:50:40;7.30;99.90
67141;DHT22;54058;52.010;5.546;2023-12-20T03:53:06;7.30;99.90
67141;DHT22;54058;52.010;5.546;2023-12-20T03:55:32;7.30;99.90
67141;DHT22;54058;52.010;5.546;2023-12-20T03:58:02;7.30;99.90
67141;DHT22;54058;52.010;5.546;2023-12-20T04:00:29;7.20;99.90
67141;DHT22;54058;52.010;5.546;2023-12-20T04:02:55;7.20;99.90
67141;DHT22;54058;52.010;5.546;2023-12-20T04:05:20;7.20;99.90
67141;DHT22;54058;52.010;5.546;2023-12-20T04:07:47;7.20;99.90
67141;DHT22;54058;52.010;5.546;2023-12-20T04:10:21;7.20;99.90
67141;DHT22;54058;52.010;5.546;2023-12-20T04:12:55;7.20;99.90
67141;DHT22;54058;52.010;5.546;2023-12-20T04:15:21;7.20;99.90
67141;DHT22;54058;52.010;5.546;2023-12-20T04:17:47;7.20;99.90
67141;DHT22;54058;52.010;5.546;2023-12-20T04:20:12;7.20;99.90
67141;DHT22;54058;52.010;5.546;2023-12-20T04:22:39;7.20;99.90
67141;DHT22;54058;52.010;5.546;2023-12-20T04:25:05;7.20;99.90
67141;DHT22;54058;52.010;5.546;2023-12-20T04:27:37;7.20;99.90
67141;DHT22;54058;52.010;5.546;2023-12-20T04:30:03;7.20;99.90
67141;DHT22;54058;52.010;5.546;2023-12-20T04:32:29;7.20;99.90
67141;DHT22;54058;52.010;5.546;2023-12-20T04:34:57;7.30;99.90
67141;DHT22;54058;52.010;5.546;2023-12-20T04:37:27;7.30;99.90
67141;DHT22;54058;52.010;5.546;2023-12-20T04:39:52;7.30;99.90
67141;DHT22;54058;52.010;5.546;2023-12-20T04:42:18;7.30;99.90
67141;DHT22;54058;52.010;5.546;2023-12-20T04:44:44;7.30;99.90
67141;DHT22;54058;52.010;5.546;2023-12-20T04:47:09;7.30;99.90
67141;DHT22;54058;52.010;5.546;2023-12-20T04:49:35;7.40;99.90
67141;DHT22;54058;52.010;5.546;2023-12-20T04:52:00;7.40;99.90
67141;DHT22;54058;52.010;5.546;2023-12-20T04:54:26;7.50;99.90
67141;DHT22;54058;52.010;5.546;2023-12-20T04:56:51;7.50;99.90
67141;DHT22;54058;52.010;5.546;2023-12-20T04:59:17;7.50;99.90
67141;DHT22;54058;52.010;5.546;2023-12-20T05:01:43;7.50;99.90
67141;DHT22;54058;52.010;5.546;2023-12-20T05:04:08;7.60;99.90
67141;DHT22;54058;52.010;5.546;2023-12-20T05:06:34;7.60;99.90
67141;DHT22;54058;52.010;5.546;2023-12-20T05:08:59;7.60;99.90
67141;DHT22;54058;52.010;5.546;2023-12-20T05:11:25;7.70;99.90
67141;DHT22;54058;52.010;5.546;2023-12-20T05:13:50;7.70;99.90
67141;DHT22;54058;52.010;5.546;2023-12-20T05:16:16;7.70;99.90
67141;DHT22;54058;52.010;5.546;2023-12-20T05:18:44;7.70;99.90
67141;DHT22;54058;52.010;5.546;2023-12-20T05:21:10;7.70;99.90
67141;DHT22;54058;52.010;5.546;2023-12-20T05:23:36;7.70;99.90
67141;DHT22;54058;52.010;5.546;2023-12-20T05:26:01;7.80;99.90
67141;DHT22;54058;52.010;5.546;2023-12-20T05:28:27;7.80;99.90
67141;DHT22;54058;52.010;5.546;2023-12-20T05:30:57;7.80;99.90
67141;DHT22;54058;52.010;5.546;2023-12-20T05:33:22;7.80;99.90
67141;DHT22;54058;52.010;5.546;2023-12-20T05:35:48;7.90;99.90
67141;DHT22;54058;52.010;5.546;2023-12-20T05:38:14;7.80;99.90
67141;DHT22;54058;52.010;5.546;2023-12-20T05:40:39;7.90;99.90
67141;DHT22;54058;52.010;5.546;2023-12-20T05:43:05;7.90;99.90
67141;DHT22;54058;52.010;5.546;2023-12-20T05:45:30;7.90;99.90
67141;DHT22;54058;52.010;5.546;2023-12-20T05:47:56;7.90;99.90
67141;DHT22;54058;52.010;5.546;2023-12-20T05:50:22;7.90;99.90
67141;DHT22;54058;52.010;5.546;2023-12-20T05:52:48;7.90;99.90
67141;DHT22;54058;52.010;5.546;2023-12-20T05:55:13;7.90;99.90
67141;DHT22;54058;52.010;5.546;2023-12-20T05:57:39;7.90;99.90
67141;DHT22;54058;52.010;5.546;2023-12-20T06:00:05;7.90;99.90
67141;DHT22;54058;52.010;5.546;2023-12-20T06:02:31;7.90;99.90
67141;DHT22;54058;52.010;5.546;2023-12-20T06:04:58;7.90;99.90
67141;DHT22;54058;52.010;5.546;2023-12-20T06:07:23;7.90;99.90
67141;DHT22;54058;52.010;5.546;2023-12-20T06:09:49;7.90;99.90
67141;DHT22;54058;52.010;5.546;2023-12-20T06:12:15;7.90;99.90
67141;DHT22;54058;52.010;5.546;2023-12-20T06:14:40;8.00;99.90
67141;DHT22;54058;52.010;5.546;2023-12-20T06:17:06;8.00;99.90
67141;DHT22;54058;52.010;5.546;2023-12-20T06:19:32;8.00;99.90
67141;DHT22;54058;52.010;5.546;2023-12-20T06:21:57;8.00;99.90
67141;DHT22;54058;52.010;5.546;2023-12-20T06:24:24;8.00;99.90
67141;DHT22;54058;52.010;5.546;2023-12-20T06:26:53;7.90;99.90
67141;DHT22;54058;52.010;5.546;2023-12-20T06:29:19;8.00;99.90
67141;DHT22;54058;52.010;5.546;2023-12-20T06:31:45;8.00;99.90
67141;DHT22;54058;52.010;5.546;2023-12-20T06:34:10;8.00;99.90
67141;DHT22;54058;52.010;5.546;2023-12-20T06:36:36;8.00;99.90
67141;DHT22;54058;52.010;5.546;2023-12-20T06:39:02;8.00;99.90
67141;DHT22;54058;52.010;5.546;2023-12-20T06:41:29;8.00;99.90
67141;DHT22;54058;52.010;5.546;2023-12-20T06:43:55;8.00;99.90
67141;DHT22;54058;52.010;5.546;2023-12-20T06:46:20;8.00;99.90
67141;DHT22;54058;52.010;5.546;2023-12-20T06:48:46;8.00;99.90
67141;DHT22;54058;52.010;5.546;2023-12-20T06:51:16;8.00;99.90
67141;DHT22;54058;52.010;5.546;2023-12-20T06:53:42;8.00;99.90
67141;DHT22;54058;52.010;5.546;2023-12-20T06:56:08;8.00;99.90
67141;DHT22;54058;52.010;5.546;2023-12-20T06:58:34;8.00;99.90
67141;DHT22;54058;52.010;5.546;2023-12-20T07:01:00;8.00;99.90
67141;DHT22;54058;52.010;5.546;2023-12-20T07:03:26;8.00;99.90
67141;DHT22;54058;52.010;5.546;2023-12-20T07:05:51;8.00;99.90
67141;DHT22;54058;52.010;5.546;2023-12-20T07:08:18;8.00;99.90
67141;DHT22;54058;52.010;5.546;2023-12-20T07:10:45;8.00;99.90
67141;DHT22;54058;52.010;5.546;2023-12-20T07:13:10;8.00;99.90
67141;DHT22;54058;52.010;5.546;2023-12-20T07:15:36;8.10;99.90
67141;DHT22;54058;52.010;5.546;2023-12-20T07:18:02;8.10;99.90
67141;DHT22;54058;52.010;5.546;2023-12-20T07:20:28;8.00;99.90
67141;DHT22;54058;52.010;5.546;2023-12-20T07:22:54;8.10;99.90
67141;DHT22;54058;52.010;5.546;2023-12-20T07:25:19;8.10;99.90
67141;DHT22;54058;52.010;5.546;2023-12-20T07:27:45;8.10;99.90
67141;DHT22;54058;52.010;5.546;2023-12-20T07:30:11;8.10;99.90
67141;DHT22;54058;52.010;5.546;2023-12-20T07:32:37;8.10;99.90
67141;DHT22;54058;52.010;5.546;2023-12-20T07:35:03;8.10;99.90
67141;DHT22;54058;52.010;5.546;2023-12-20T07:37:29;8.20;99.90
67141;DHT22;54058;52.010;5.546;2023-12-20T07:39:54;8.20;99.90
67141;DHT22;54058;52.010;5.546;2023-12-20T07:42:20;8.20;99.90
67141;DHT22;54058;52.010;5.546;2023-12-20T07:44:47;8.20;99.90
67141;DHT22;54058;52.010;5.546;2023-12-20T07:47:16;8.20;99.90
67141;DHT22;54058;52.010;5.546;2023-12-20T07:49:48;8.20;99.90
67141;DHT22;54058;52.010;5.546;2023-12-20T07:52:13;8.20;99.90
67141;DHT22;54058;52.010;5.546;2023-12-20T07:54:39;8.20;99.90
67141;DHT22;54058;52.010;5.546;2023-12-20T07:57:05;8.20;99.90
67141;DHT22;54058;52.010;5.546;2023-12-20T07:59:31;8.20;99.90
67141;DHT22;54058;52.010;5.546;2023-12-20T08:01:56;8.20;99.90
67141;DHT22;54058;52.010;5.546;2023-12-20T08:04:22;8.20;99.90
67141;DHT22;54058;52.010;5.546;2023-12-20T08:06:47;8.30;99.90
67141;DHT22;54058;52.010;5.546;2023-12-20T08:09:13;8.30;99.90
67141;DHT22;54058;52.010;5.546;2023-12-20T08:11:39;8.30;99.90
67141;DHT22;54058;52.010;5.546;2023-12-20T08:14:06;8.30;99.90
67141;DHT22;54058;52.010;5.546;2023-12-20T08:16:31;8.30;99.90
67141;DHT22;54058;52.010;5.546;2023-12-20T08:18:57;8.30;99.90
67141;DHT22;54058;52.010;5.546;2023-12-20T08:21:23;8.30;99.90
67141;DHT22;54058;52.010;5.546;2023-12-20T08:23:48;8.30;99.90
67141;DHT22;54058;52.010;5.546;2023-12-20T08:26:19;8.40;99.90
67141;DHT22;54058;52.010;5.546;2023-12-20T08:28:46;8.40;99.90
67141;DHT22;54058;52.010;5.546;2023-12-20T08:31:15;8.40;99.90
67141;DHT22;54058;52.010;5.546;2023-12-20T08:33:46;8.40;99.90
67141;DHT22;54058;52.010;5.546;2023-12-20T08:36:12;8.40;99.90
67141;DHT22;54058;52.010;5.546;2023-12-20T08:38:39;8.40;99.90
67141;DHT22;54058;52.010;5.546;2023-12-20T08:41:06;8.40;99.90
67141;DHT22;54058;52.010;5.546;2023-12-20T08:43:34;8.40;99.90
67141;DHT22;54058;52.010;5.546;2023-12-20T08:46:00;8.50;99.90
67141;DHT22;54058;52.010;5.546;2023-12-20T08:48:25;8.50;99.90
67141;DHT22;54058;52.010;5.546;2023-12-20T08:50:51;8.50;99.90
67141;DHT22;54058;52.010;5.546;2023-12-20T08:53:18;8.50;99.90
67141;DHT22;54058;52.010;5.546;2023-12-20T08:55:44;8.50;99.90
67141;DHT22;54058;52.010;5.546;2023-12-20T08:58:10;8.50;99.90
67141;DHT22;54058;52.010;5.546;2023-12-20T09:00:35;8.50;99.90
67141;DHT22;54058;52.010;5.546;2023-12-20T09:03:02;8.50;99.90
67141;DHT22;54058;52.010;5.546;2023-12-20T09:05:27;8.50;99.90
67141;DHT22;54058;52.010;5.546;2023-12-20T09:07:53;8.50;99.90
67141;DHT22;54058;52.010;5.546;2023-12-20T09:10:19;8.50;99.90
67141;DHT22;54058;52.010;5.546;2023-12-20T09:12:56;8.50;99.90
67141;DHT22;54058;52.010;5.546;2023-12-20T09:15:26;8.40;99.90
67141;DHT22;54058;52.010;5.546;2023-12-20T09:17:52;8.40;99.90
67141;DHT22;54058;52.010;5.546;2023-12-20T09:20:19;8.40;99.90
67141;DHT22;54058;52.010;5.546;2023-12-20T09:22:45;8.40;99.90
67141;DHT22;54058;52.010;5.546;2023-12-20T09:25:10;8.50;99.90
67141;DHT22;54058;52.010;5.546;2023-12-20T09:27:38;8.50;99.90
67141;DHT22;54058;52.010;5.546;2023-12-20T09:30:04;8.50;99.90
67141;DHT22;54058;52.010;5.546;2023-12-20T09:32:31;8.50;99.90
67141;DHT22;54058;52.010;5.546;2023-12-20T09:34:57;8.50;99.90
67141;DHT22;54058;52.010;5.546;2023-12-20T09:37:25;8.50;99.90
67141;DHT22;54058;52.010;5.546;2023-12-20T09:39:51;8.50;99.90
67141;DHT22;54058;52.010;5.546;2023-12-20T09:42:24;8.50;99.90
67141;DHT22;54058;52.010;5.546;2023-12-20T09:44:50;8.50;99.90
67141;DHT22;54058;52.010;5.546;2023-12-20T09:47:20;8.50;99.90
67141;DHT22;54058;52.010;5.546;2023-12-20T09:49:49;8.50;99.90
67141;DHT22;54058;52.010;5.546;2023-12-20T09:52:16;8.60;99.90
67141;DHT22;54058;52.010;5.546;2023-12-20T09:54:43;8.60;99.90
67141;DHT22;54058;52.010;5.546;2023-12-20T09:57:09;8.60;99.90
67141;DHT22;54058;52.010;5.546;2023-12-20T09:59:35;8.60;99.90
67141;DHT22;54058;52.010;5.546;2023-12-20T10:02:01;8.70;99.90
67141;DHT22;54058;52.010;5.546;2023-12-20T10:04:31;9.00;99.90
67141;DHT22;54058;52.010;5.546;2023-12-20T10:07:02;9.20;99.90
67141;DHT22;54058;52.010;5.546;2023-12-20T10:09:31;9.30;99.90
67141;DHT22;54058;52.010;5.546;2023-12-20T10:11:57;9.50;99.90
67141;DHT22;54058;52.010;5.546;2023-12-20T10:14:24;9.60;99.90
67141;DHT22;54058;52.010;5.546;2023-12-20T10:16:50;9.70;99.90
67141;DHT22;54058;52.010;5.546;2023-12-20T10:19:19;9.80;99.90
67141;DHT22;54058;52.010;5.546;2023-12-20T10:21:45;9.80;99.90
67141;DHT22;54058;52.010;5.546;2023-12-20T10:24:17;9.90;99.90
67141;DHT22;54058;52.010;5.546;2023-12-20T10:26:42;10.00;99.90
67141;DHT22;54058;52.010;5.546;2023-12-20T10:29:10;10.10;99.90
67141;DHT22;54058;52.010;5.546;2023-12-20T10:31:36;10.20;99.90
67141;DHT22;54058;52.010;5.546;2023-12-20T10:34:04;10.00;99.90
67141;DHT22;54058;52.010;5.546;2023-12-20T10:36:32;9.80;99.90
67141;DHT22;54058;52.010;5.546;2023-12-20T10:38:58;9.70;99.90
67141;DHT22;54058;52.010;5.546;2023-12-20T10:41:29;9.60;99.90
67141;DHT22;54058;52.010;5.546;2023-12-20T10:44:02;9.60;99.90
67141;DHT22;54058;52.010;5.546;2023-12-20T10:46:29;9.50;99.90
67141;DHT22;54058;52.010;5.546;2023-12-20T10:48:56;9.50;99.90
67141;DHT22;54058;52.010;5.546;2023-12-20T10:51:23;9.40;99.90
67141;DHT22;54058;52.010;5.546;2023-12-20T10:53:49;9.50;99.90
67141;DHT22;54058;52.010;5.546;2023-12-20T10:56:19;9.50;99.90
67141;DHT22;54058;52.010;5.546;2023-12-20T10:58:48;9.50;99.90
67141;DHT22;54058;52.010;5.546;2023-12-20T11:01:15;9.50;99.90
67141;DHT22;54058;52.010;5.546;2023-12-20T11:03:47;9.60;99.90
67141;DHT22;54058;52.010;5.546;2023-12-20T11:09:08;9.70;99.90
67141;DHT22;54058;52.010;5.546;2023-12-20T11:14:21;9.80;99.90
67141;DHT22;54058;52.010;5.546;2023-12-20T11:16:47;9.80;99.90
67141;DHT22;54058;52.010;5.546;2023-12-20T11:19:13;9.80;99.90
67141;DHT22;54058;52.010;5.546;2023-12-20T11:21:40;9.80;99.90
67141;DHT22;54058;52.010;5.546;2023-12-20T11:24:06;9.80;99.90
67141;DHT22;54058;52.010;5.546;2023-12-20T11:26:31;9.90;99.90
67141;DHT22;54058;52.010;5.546;2023-12-20T11:29:35;9.90;99.90
67141;DHT22;54058;52.010;5.546;2023-12-20T11:32:03;9.90;99.90
67141;DHT22;54058;52.010;5.546;2023-12-20T11:34:50;10.00;99.90
67141;DHT22;54058;52.010;5.546;2023-12-20T11:37:16;10.00;99.90
67141;DHT22;54058;52.010;5.546;2023-12-20T11:39:44;9.90;99.90
67141;DHT22;54058;52.010;5.546;2023-12-20T11:42:10;10.00;99.90
67141;DHT22;54058;52.010;5.546;2023-12-20T11:44:36;10.00;99.90
67141;DHT22;54058;52.010;5.546;2023-12-20T11:47:03;10.00;99.90
67141;DHT22;54058;52.010;5.546;2023-12-20T11:49:29;10.00;99.90
67141;DHT22;54058;52.010;5.546;2023-12-20T11:51:56;10.10;99.90
67141;DHT22;54058;52.010;5.546;2023-12-20T11:54:22;10.20;99.90
67141;DHT22;54058;52.010;5.546;2023-12-20T11:56:48;10.20;99.90
67141;DHT22;54058;52.010;5.546;2023-12-20T11:59:14;10.20;99.90
67141;DHT22;54058;52.010;5.546;2023-12-20T12:01:47;10.20;99.90
67141;DHT22;54058;52.010;5.546;2023-12-20T12:04:14;10.30;99.90
67141;DHT22;54058;52.010;5.546;2023-12-20T12:06:40;10.30;99.90
67141;DHT22;54058;52.010;5.546;2023-12-20T12:09:06;10.40;99.90
67141;DHT22;54058;52.010;5.546;2023-12-20T12:11:33;10.40;99.90
67141;DHT22;54058;52.010;5.546;2023-12-20T12:13:59;10.40;99.90
67141;DHT22;54058;52.010;5.546;2023-12-20T12:16:25;10.40;99.90
67141;DHT22;54058;52.010;5.546;2023-12-20T12:18:57;10.40;99.90
67141;DHT22;54058;52.010;5.546;2023-12-20T12:21:23;10.50;99.90
67141;DHT22;54058;52.010;5.546;2023-12-20T12:23:49;10.40;99.90
67141;DHT22;54058;52.010;5.546;2023-12-20T12:26:18;10.30;99.90
67141;DHT22;54058;52.010;5.546;2023-12-20T12:28:44;10.30;99.90
67141;DHT22;54058;52.010;5.546;2023-12-20T12:31:14;10.30;99.90
67141;DHT22;54058;52.010;5.546;2023-12-20T12:33:42;10.20;99.90
67141;DHT22;54058;52.010;5.546;2023-12-20T12:36:10;10.20;99.90
67141;DHT22;54058;52.010;5.546;2023-12-20T12:38:36;10.20;99.90
67141;DHT22;54058;52.010;5.546;2023-12-20T12:41:02;10.20;99.90
67141;DHT22;54058;52.010;5.546;2023-12-20T12:43:28;10.10;99.90
67141;DHT22;54058;52.010;5.546;2023-12-20T12:45:53;10.10;99.90
67141;DHT22;54058;52.010;5.546;2023-12-20T12:48:19;10.20;99.90
67141;DHT22;54058;52.010;5.546;2023-12-20T12:50:48;10.20;99.90
67141;DHT22;54058;52.010;5.546;2023-12-20T12:53:13;10.20;99.90
67141;DHT22;54058;52.010;5.546;2023-12-20T12:55:39;10.20;99.90
67141;DHT22;54058;52.010;5.546;2023-12-20T12:58:05;10.20;99.90
67141;DHT22;54058;52.010;5.546;2023-12-20T13:00:31;10.20;99.90
67141;DHT22;54058;52.010;5.546;2023-12-20T13:02:56;10.20;99.90
67141;DHT22;54058;52.010;5.546;2023-12-20T13:05:22;10.20;99.90
67141;DHT22;54058;52.010;5.546;2023-12-20T13:07:47;10.20;99.90
67141;DHT22;54058;52.010;5.546;2023-12-20T13:10:13;10.20;99.90
67141;DHT22;54058;52.010;5.546;2023-12-20T13:12:42;10.20;99.90
67141;DHT22;54058;52.010;5.546;2023-12-20T13:15:08;10.20;99.90
67141;DHT22;54058;52.010;5.546;2023-12-20T13:17:34;10.20;99.90
67141;DHT22;54058;52.010;5.546;2023-12-20T13:20:00;10.20;99.90
67141;DHT22;54058;52.010;5.546;2023-12-20T13:22:25;10.20;99.90
67141;DHT22;54058;52.010;5.546;2023-12-20T13:24:51;10.20;99.90
67141;DHT22;54058;52.010;5.546;2023-12-20T13:27:17;10.20;99.90
67141;DHT22;54058;52.010;5.546;2023-12-20T13:29:43;10.20;99.90
67141;DHT22;54058;52.010;5.546;2023-12-20T13:32:09;10.20;99.90
67141;DHT22;54058;52.010;5.546;2023-12-20T13:34:35;10.20;99.90
67141;DHT22;54058;52.010;5.546;2023-12-20T13:37:01;10.10;99.90
67141;DHT22;54058;52.010;5.546;2023-12-20T13:39:26;10.10;99.90
67141;DHT22;54058;52.010;5.546;2023-12-20T13:41:52;10.10;99.90
67141;DHT22;54058;52.010;5.546;2023-12-20T13:44:18;10.10;99.90
67141;DHT22;54058;52.010;5.546;2023-12-20T13:46:44;10.10;99.90
67141;DHT22;54058;52.010;5.546;2023-12-20T13:49:10;10.10;99.90
67141;DHT22;54058;52.010;5.546;2023-12-20T13:51:37;10.10;99.90
67141;DHT22;54058;52.010;5.546;2023-12-20T13:54:04;10.10;99.90
67141;DHT22;54058;52.010;5.546;2023-12-20T13:56:29;10.10;99.90
67141;DHT22;54058;52.010;5.546;2023-12-20T13:58:55;10.10;99.90
67141;DHT22;54058;52.010;5.546;2023-12-20T14:01:20;10.10;99.90
67141;DHT22;54058;52.010;5.546;2023-12-20T14:03:46;10.10;99.90
67141;DHT22;54058;52.010;5.546;2023-12-20T14:06:12;10.20;99.90
67141;DHT22;54058;52.010;5.546;2023-12-20T14:08:39;10.20;99.90
67141;DHT22;54058;52.010;5.546;2023-12-20T14:11:07;10.20;99.90
67141;DHT22;54058;52.010;5.546;2023-12-20T14:13:33;10.20;99.90
67141;DHT22;54058;52.010;5.546;2023-12-20T14:15:59;10.20;99.90
67141;DHT22;54058;52.010;5.546;2023-12-20T14:18:25;10.20;99.90
67141;DHT22;54058;52.010;5.546;2023-12-20T14:20:51;10.20;99.90
67141;DHT22;54058;52.010;5.546;2023-12-20T14:23:17;10.10;99.90
67141;DHT22;54058;52.010;5.546;2023-12-20T14:25:42;10.10;99.90
67141;DHT22;54058;52.010;5.546;2023-12-20T14:28:08;10.10;99.90
67141;DHT22;54058;52.010;5.546;2023-12-20T14:30:35;10.00;99.90
67141;DHT22;54058;52.010;5.546;2023-12-20T14:33:04;10.00;99.90
67141;DHT22;54058;52.010;5.546;2023-12-20T14:35:30;10.00;99.90
67141;DHT22;54058;52.010;5.546;2023-12-20T14:37:56;10.00;99.90
67141;DHT22;54058;52.010;5.546;2023-12-20T14:40:22;10.00;99.90
67141;DHT22;54058;52.010;5.546;2023-12-20T14:42:48;10.00;99.90
67141;DHT22;54058;52.010;5.546;2023-12-20T14:45:15;9.90;99.90
67141;DHT22;54058;52.010;5.546;2023-12-20T14:47:42;10.00;99.90
67141;DHT22;54058;52.010;5.546;2023-12-20T14:50:08;9.90;99.90
67141;DHT22;54058;52.010;5.546;2023-12-20T14:52:34;9.90;99.90
67141;DHT22;54058;52.010;5.546;2023-12-20T14:55:01;9.90;99.90
67141;DHT22;54058;52.010;5.546;2023-12-20T14:57:28;9.80;99.90
67141;DHT22;54058;52.010;5.546;2023-12-20T14:59:55;9.90;99.90
67141;DHT22;54058;52.010;5.546;2023-12-20T15:02:20;9.90;99.90
67141;DHT22;54058;52.010;5.546;2023-12-20T15:04:46;9.90;99.90
67141;DHT22;54058;52.010;5.546;2023-12-20T15:07:12;9.80;99.90
67141;DHT22;54058;52.010;5.546;2023-12-20T15:09:40;9.80;99.90
67141;DHT22;54058;52.010;5.546;2023-12-20T15:12:10;9.80;99.90
67141;DHT22;54058;52.010;5.546;2023-12-20T15:14:35;9.80;99.90
67141;DHT22;54058;52.010;5.546;2023-12-20T15:17:01;9.80;99.90
67141;DHT22;54058;52.010;5.546;2023-12-20T15:19:27;9.80;99.90
67141;DHT22;54058;52.010;5.546;2023-12-20T15:21:53;9.70;99.90
67141;DHT22;54058;52.010;5.546;2023-12-20T15:24:18;9.70;99.90
67141;DHT22;54058;52.010;5.546;2023-12-20T15:26:51;9.70;99.90
67141;DHT22;54058;52.010;5.546;2023-12-20T15:29:17;9.70;99.90
67141;DHT22;54058;52.010;5.546;2023-12-20T15:31:45;9.60;99.90
67141;DHT22;54058;52.010;5.546;2023-12-20T15:34:11;9.60;99.90
67141;DHT22;54058;52.010;5.546;2023-12-20T15:36:37;9.60;99.90
67141;DHT22;54058;52.010;5.546;2023-12-20T15:39:04;9.60;99.90
67141;DHT22;54058;52.010;5.546;2023-12-20T15:41:30;9.60;99.90
67141;DHT22;54058;52.010;5.546;2023-12-20T15:43:56;9.60;99.90